Terminal Aerodrome Forecast
Issued by NWS

Home | Current Version | Previous Version | Graphics & Text | Print | Product List | Glossary On
Versions: 1 2 3 4 5 6 7 8 9 10 11 12 13 14 15 16 17 18
000
FTUS43 KGRB 172300
TAFATW
TAF
KATW 172328Z 1800/1824 29011KT P6SM BKN035
      TEMPO 1802/1804 BKN022 OVC035
     FM180600 34006KT P6SM SCT035
     FM181800 36004KT P6SM SKC=

USA.gov is the U.S. government's official web portal to all federal, state and local government web resources and services.